Elbella — 9HA2358 — position and weather

sailwx.info

Track history (hours):
 
Tides and Currents Weather Stations Pressure Air Temp Water Temp Dewpoint Dewpoint Depression Visibility Wind Speed Wind Dir Waves Ship Positions

Elbella

Last reported at 2015-Jul-05 13:27 UTC. Time now 2015-Jul-08 04:22 UTC.
Position N 35°26' E 031°38'.

Length 176 m; draft 8 m.

Type: Ship (hazmat cat A). MMSI: 248422000.

Date/timePositionNaut miles runAvg speedWind from/ knotsBaromVisibWave heightAir tempDewpointWater temp
2015-Jul-05 13:27N 35°26' E 031°38'3812.1
2015-Jul-05 10:21N 34°53' E 031°60'1012.1
2015-Jul-05 09:31N 34°44' E 032°06'1211.8
2015-Jul-05 08:32N 34°34' E 032°14'1212.1
2015-Jul-05 07:33N 34°27' E 032°25'1212.1
2015-Jul-05 06:33N 34°23' E 032°39'1312.6
2015-Jul-05 05:33N 34°21' E 032°54'1212.4
2015-Jul-05 04:33N 34°18' E 033°09'1211.8
2015-Jul-05 03:33N 34°16' E 033°23'1312.0
2015-Jul-05 02:30N 34°13' E 033°38'1112.0
2015-Jul-05 01:33N 34°11' E 033°51'1212.1
2015-Jul-05 00:33N 34°08' E 034°05'1212.3
2015-Jul-04 23:33N 34°06' E 034°20'1312.7
2015-Jul-04 22:33N 34°03' E 034°35'1312.6
2015-Jul-04 21:33N 34°00' E 034°50'1212.5
2015-Jul-04 20:33N 33°58' E 035°04'49 1.7
2015-Jul-03 16:13N 34°46' E 035°17'1316.9
2015-Jul-03 15:28N 34°58' E 035°19'  
2015-Jul-01 11:23N 35°47' E 027°44'7217.3
2015-Jul-01 07:15N 36°07' E 026°19'1217.2
2015-Jul-01 06:33N 36°06' E 026°04'1817.5
2015-Jul-01 05:31N 36°03' E 025°43'1717.5
2015-Jul-01 04:33N 36°00' E 025°22'1717.6
2015-Jul-01 03:34N 35°58' E 025°00'1918.0
2015-Jul-01 02:31N 35°55' E 024°38'42917.7
2015-Jun-30 02:18N 35°47' E 015°49'1317.6
2015-Jun-30 01:33N 35°48' E 015°33'1817.7
2015-Jun-30 00:33N 35°48' E 015°11'2017.9
2015-Jun-29 23:27N 35°48' E 014°46'1112.9
2015-Jun-29 22:34N 35°49' E 014°32'0 0.0
2015-Jun-29 21:12N 35°49' E 014°32'0 0.0
2015-Jun-29 20:33N 35°49' E 014°32'0 0.0
2015-Jun-29 19:33N 35°49' E 014°32'0 0.0
2015-Jun-29 13:33N 35°49' E 014°32'0 0.0
2015-Jun-29 12:27N 35°49' E 014°32'0 0.0
2015-Jun-29 11:33N 35°49' E 014°32'0 0.0
2015-Jun-29 10:27N 35°49' E 014°32'0 0.0
2015-Jun-29 04:31N 35°49' E 014°32'0 0.0
2015-Jun-29 02:32N 35°49' E 014°32'0 0.0
2015-Jun-29 01:33N 35°49' E 014°32'0 0.0
2015-Jun-29 00:33N 35°49' E 014°32'0 0.0
2015-Jun-28 23:32N 35°49' E 014°32'0 0.0
2015-Jun-28 22:26N 35°49' E 014°32'0 0.0
2015-Jun-28 21:33N 35°49' E 014°32'0 0.0
2015-Jun-28 20:33N 35°49' E 014°32'0 0.0
2015-Jun-28 19:33N 35°49' E 014°32'1 1.2
2015-Jun-28 18:33N 35°49' E 014°34'6 5.6
2015-Jun-28 17:33N 35°51' E 014°40'0 0.0
2015-Jun-28 16:33N 35°51' E 014°40'0 0.0
2015-Jun-28 15:33N 35°51' E 014°40'0 0.0
2015-Jun-28 14:33N 35°51' E 014°40'0 0.0
2015-Jun-28 13:33N 35°51' E 014°40'0 0.0
2015-Jun-28 12:33N 35°51' E 014°40'0 0.0
2015-Jun-28 11:33N 35°51' E 014°40'0 0.0
2015-Jun-28 10:33N 35°51' E 014°40'0 0.0
2015-Jun-28 09:33N 35°51' E 014°40'5 4.9
2015-Jun-28 08:33N 35°50' E 014°46'1515.3
2015-Jun-28 07:33N 35°49' E 015°04'2316.1
2015-Jun-28 06:07N 35°50' E 015°33'915.9
2015-Jun-28 05:33N 35°51' E 015°44'42714.5
2015-Jun-27 00:10N 36°13' E 024°31'1016.9
2015-Jun-26 23:33N 36°11' E 024°44'1717.1
2015-Jun-26 22:33N 36°09' E 025°05'1717.2
2015-Jun-26 21:33N 36°08' E 025°26'1717.2
2015-Jun-26 20:32N 36°08' E 025°47'1616.7
2015-Jun-26 19:33N 36°08' E 026°08'1716.6
2015-Jun-26 18:33N 36°07' E 026°28'1716.7
2015-Jun-26 17:33N 36°04' E 026°49'1616.1
2015-Jun-26 16:32N 36°01' E 027°08'1615.9
2015-Jun-26 15:33N 35°55' E 027°26'1615.9
2015-Jun-26 14:33N 35°48' E 027°44'1716.2
2015-Jun-26 13:31N 35°47' E 028°04'  
Track history (hours):
 
Tides and Currents Weather Stations Pressure Air Temp Water Temp Dewpoint Dewpoint Depression Visibility Wind Speed Wind Dir Waves Ship Positions

Elbella

Last reported at 2015-Jul-05 13:27 UTC. Time now 2015-Jul-08 04:22 UTC.
Position N 35°26' E 031°38'.

Length 176 m; draft 8 m.

Type: Ship (hazmat cat A). MMSI: 248422000.

Date/timePositionNaut miles runAvg speedWind from/ knotsBaromVisibWave heightAir tempDewpointWater temp
2015-Jul-05 13:27N 35°26' E 031°38'3812.1
2015-Jul-05 10:21N 34°53' E 031°60'1012.1
2015-Jul-05 09:31N 34°44' E 032°06'1211.8
2015-Jul-05 08:32N 34°34' E 032°14'1212.1
2015-Jul-05 07:33N 34°27' E 032°25'1212.1
2015-Jul-05 06:33N 34°23' E 032°39'1312.6
2015-Jul-05 05:33N 34°21' E 032°54'1212.4
2015-Jul-05 04:33N 34°18' E 033°09'1211.8
2015-Jul-05 03:33N 34°16' E 033°23'1312.0
2015-Jul-05 02:30N 34°13' E 033°38'1112.0
2015-Jul-05 01:33N 34°11' E 033°51'1212.1
2015-Jul-05 00:33N 34°08' E 034°05'1212.3
2015-Jul-04 23:33N 34°06' E 034°20'1312.7
2015-Jul-04 22:33N 34°03' E 034°35'1312.6
2015-Jul-04 21:33N 34°00' E 034°50'1212.5
2015-Jul-04 20:33N 33°58' E 035°04'49 1.7
2015-Jul-03 16:13N 34°46' E 035°17'1316.9
2015-Jul-03 15:28N 34°58' E 035°19'  
2015-Jul-01 11:23N 35°47' E 027°44'7217.3
2015-Jul-01 07:15N 36°07' E 026°19'1217.2
2015-Jul-01 06:33N 36°06' E 026°04'1817.5
2015-Jul-01 05:31N 36°03' E 025°43'1717.5
2015-Jul-01 04:33N 36°00' E 025°22'1717.6
2015-Jul-01 03:34N 35°58' E 025°00'1918.0
2015-Jul-01 02:31N 35°55' E 024°38'42917.7
2015-Jun-30 02:18N 35°47' E 015°49'1317.6
2015-Jun-30 01:33N 35°48' E 015°33'1817.7
2015-Jun-30 00:33N 35°48' E 015°11'2017.9
2015-Jun-29 23:27N 35°48' E 014°46'1112.9
2015-Jun-29 22:34N 35°49' E 014°32'0 0.0
2015-Jun-29 21:12N 35°49' E 014°32'0 0.0
2015-Jun-29 20:33N 35°49' E 014°32'0 0.0
2015-Jun-29 19:33N 35°49' E 014°32'0 0.0
2015-Jun-29 13:33N 35°49' E 014°32'0 0.0
2015-Jun-29 12:27N 35°49' E 014°32'0 0.0
2015-Jun-29 11:33N 35°49' E 014°32'0 0.0
2015-Jun-29 10:27N 35°49' E 014°32'0 0.0
2015-Jun-29 04:31N 35°49' E 014°32'0 0.0
2015-Jun-29 02:32N 35°49' E 014°32'0 0.0
2015-Jun-29 01:33N 35°49' E 014°32'0 0.0
2015-Jun-29 00:33N 35°49' E 014°32'0 0.0
2015-Jun-28 23:32N 35°49' E 014°32'0 0.0
2015-Jun-28 22:26N 35°49' E 014°32'0 0.0
2015-Jun-28 21:33N 35°49' E 014°32'0 0.0
2015-Jun-28 20:33N 35°49' E 014°32'0 0.0
2015-Jun-28 19:33N 35°49' E 014°32'1 1.2
2015-Jun-28 18:33N 35°49' E 014°34'6 5.6
2015-Jun-28 17:33N 35°51' E 014°40'0 0.0
2015-Jun-28 16:33N 35°51' E 014°40'0 0.0
2015-Jun-28 15:33N 35°51' E 014°40'0 0.0
2015-Jun-28 14:33N 35°51' E 014°40'0 0.0
2015-Jun-28 13:33N 35°51' E 014°40'0 0.0
2015-Jun-28 12:33N 35°51' E 014°40'0 0.0
2015-Jun-28 11:33N 35°51' E 014°40'0 0.0
2015-Jun-28 10:33N 35°51' E 014°40'0 0.0
2015-Jun-28 09:33N 35°51' E 014°40'5 4.9
2015-Jun-28 08:33N 35°50' E 014°46'1515.3
2015-Jun-28 07:33N 35°49' E 015°04'2316.1
2015-Jun-28 06:07N 35°50' E 015°33'915.9
2015-Jun-28 05:33N 35°51' E 015°44'42714.5
2015-Jun-27 00:10N 36°13' E 024°31'1016.9
2015-Jun-26 23:33N 36°11' E 024°44'1717.1
2015-Jun-26 22:33N 36°09' E 025°05'1717.2
2015-Jun-26 21:33N 36°08' E 025°26'1717.2
2015-Jun-26 20:32N 36°08' E 025°47'1616.7
2015-Jun-26 19:33N 36°08' E 026°08'1716.6
2015-Jun-26 18:33N 36°07' E 026°28'1716.7
2015-Jun-26 17:33N 36°04' E 026°49'1616.1
2015-Jun-26 16:32N 36°01' E 027°08'1615.9
2015-Jun-26 15:33N 35°55' E 027°26'1615.9
2015-Jun-26 14:33N 35°48' E 027°44'1716.2
2015-Jun-26 13:31N 35°47' E 028°04'  

Dump ship's entire track history